createdAt,value
2019-04-01T00:00:12.236Z,11.76
2019-04-01T00:01:12.191Z,11.68
2019-04-01T00:02:12.187Z,11.66
2019-04-01T00:03:13.099Z,11.69
2019-04-01T00:04:12.198Z,11.72
2019-04-01T00:05:12.228Z,11.73
2019-04-01T00:06:12.241Z,11.76
2019-04-01T00:07:13.141Z,11.77
2019-04-01T00:08:12.249Z,11.79
2019-04-01T00:09:12.320Z,11.76
2019-04-01T00:10:12.492Z,11.76
2019-04-01T00:11:12.382Z,11.75
2019-04-01T00:12:12.195Z,11.49
2019-04-01T00:13:12.246Z,11.45
2019-04-01T00:14:12.216Z,11.48
2019-04-01T00:15:12.230Z,11.51
2019-04-01T00:16:12.257Z,11.47
2019-04-01T00:17:12.180Z,11.44
2019-04-01T00:18:12.191Z,11.38
2019-04-01T00:19:12.170Z,11.37
2019-04-01T00:20:12.193Z,11.31
2019-04-01T00:21:12.196Z,11.32
2019-04-01T00:22:13.377Z,11.38
2019-04-01T00:23:12.798Z,11.39
2019-04-01T00:24:12.186Z,11.42
2019-04-01T00:25:12.207Z,11.47
2019-04-01T00:26:12.181Z,11.47
2019-04-01T00:27:12.160Z,11.49
2019-04-01T00:28:12.317Z,11.52
2019-04-01T00:29:12.171Z,11.56
2019-04-01T00:30:12.232Z,11.56
2019-04-01T00:31:12.214Z,11.59
2019-04-01T00:32:12.261Z,11.61
2019-04-01T00:33:12.142Z,11.62
2019-04-01T00:34:12.154Z,11.62
2019-04-01T00:35:12.188Z,11.64
2019-04-01T00:36:12.143Z,11.64
2019-04-01T00:37:12.235Z,11.65
2019-04-01T00:38:12.137Z,11.65
2019-04-01T00:39:12.179Z,11.66
2019-04-01T00:40:12.143Z,11.68
2019-04-01T00:41:12.183Z,11.68
2019-04-01T00:42:12.392Z,11.66
2019-04-01T00:43:12.205Z,11.68
2019-04-01T00:44:12.259Z,11.62
2019-04-01T00:45:12.230Z,11.62
2019-04-01T00:46:12.138Z,11.58
2019-04-01T00:47:12.130Z,11.55
2019-04-01T00:48:12.173Z,11.55
2019-04-01T00:49:12.120Z,11.58
2019-04-01T00:50:12.133Z,11.58
2019-04-01T00:51:12.200Z,11.58
2019-04-01T00:52:12.138Z,11.62
2019-04-01T00:53:12.176Z,11.61
2019-04-01T00:54:12.213Z,11.56
2019-04-01T00:55:12.152Z,11.59
2019-04-01T00:56:12.108Z,11.61
2019-04-01T00:57:12.145Z,11.59
2019-04-01T00:58:12.109Z,11.58
2019-04-01T00:59:12.157Z,11.58
2019-04-01T01:00:12.144Z,11.58
2019-04-01T01:01:12.123Z,11.59
2019-04-01T01:02:12.112Z,11.58
2019-04-01T01:03:12.133Z,11.56
2019-04-01T01:04:12.116Z,11.61
2019-04-01T01:05:12.112Z,11.56
2019-04-01T01:06:12.130Z,11.58
2019-04-01T01:07:12.157Z,11.55
2019-04-01T01:08:12.085Z,11.52
2019-04-01T01:09:12.160Z,11.47
2019-04-01T01:10:12.134Z,11.48
2019-04-01T01:11:12.133Z,11.49
2019-04-01T01:12:12.099Z,11.49
2019-04-01T01:13:12.101Z,11.45
2019-04-01T01:14:12.082Z,11.45
2019-04-01T01:15:14.695Z,11.44
2019-04-01T01:16:12.155Z,11.41
2019-04-01T01:17:12.117Z,11.39
2019-04-01T01:18:12.167Z,11.41
2019-04-01T01:19:12.076Z,11.41
2019-04-01T01:20:12.187Z,11.41
2019-04-01T01:21:12.139Z,11.41
2019-04-01T01:22:12.147Z,11.42
2019-04-01T01:23:12.105Z,11.44
2019-04-01T01:24:12.121Z,11.44
2019-04-01T01:25:12.134Z,11.37
2019-04-01T01:26:12.088Z,11.37
2019-04-01T01:27:12.105Z,11.35
2019-04-01T01:28:12.096Z,11.35
2019-04-01T01:29:12.103Z,11.34
2019-04-01T01:30:12.183Z,11.34
2019-04-01T01:31:12.087Z,11.3
2019-04-01T01:32:12.089Z,11.28
2019-04-01T01:33:12.106Z,11.21
2019-04-01T01:34:12.122Z,11.21
2019-04-01T01:35:12.152Z,11.22
2019-04-01T01:36:12.141Z,11.18
2019-04-01T01:37:12.106Z,11.17
2019-04-01T01:38:12.096Z,11.15
2019-04-01T01:39:12.096Z,11.18
2019-04-01T01:40:12.110Z,11.15
2019-04-01T01:41:12.081Z,11.11
2019-04-01T01:42:12.079Z,11.1
2019-04-01T01:43:12.105Z,11.11
2019-04-01T01:44:12.202Z,11.11
2019-04-01T01:45:12.116Z,11.08
2019-04-01T01:46:12.116Z,11.1
2019-04-01T01:47:12.117Z,11.08
2019-04-01T01:48:12.123Z,11.08
2019-04-01T01:49:12.171Z,11.11
2019-04-01T01:50:12.091Z,11.07
2019-04-01T01:51:12.052Z,11.06
2019-04-01T01:52:12.110Z,11.04
2019-04-01T01:53:12.093Z,11.01
2019-04-01T01:54:14.362Z,11.03
2019-04-01T01:55:12.087Z,11.04
2019-04-01T01:56:12.066Z,11.04
2019-04-01T01:57:12.064Z,11.04
2019-04-01T01:58:12.537Z,11.03
2019-04-01T01:59:12.104Z,11.01
2019-04-01T02:00:12.050Z,11.03
2019-04-01T02:01:12.040Z,10.99
2019-04-01T02:02:12.091Z,11.01
2019-04-01T02:03:12.281Z,10.99
2019-04-01T02:04:12.028Z,10.97
2019-04-01T02:05:12.035Z,10.96
2019-04-01T02:06:12.033Z,10.96
2019-04-01T02:07:12.026Z,10.94
2019-04-01T02:08:12.073Z,10.94
2019-04-01T02:09:12.068Z,10.96
2019-04-01T02:10:12.110Z,10.94
2019-04-01T02:11:12.065Z,10.9
2019-04-01T02:12:12.074Z,10.89
2019-04-01T02:13:12.027Z,10.86
2019-04-01T02:14:13.386Z,10.75
2019-04-01T02:15:12.094Z,10.76
2019-04-01T02:16:12.056Z,10.71
2019-04-01T02:17:12.082Z,10.16
2019-04-01T02:18:12.056Z,10.32
2019-04-01T02:19:12.032Z,10.04
2019-04-01T02:20:12.024Z,9.96
2019-04-01T02:21:12.010Z,9.97
2019-04-01T02:22:12.064Z,10.07
2019-04-01T02:23:12.043Z,10.1
2019-04-01T02:24:12.045Z,9.96
2019-04-01T02:25:12.104Z,9.96
2019-04-01T02:26:12.007Z,10
2019-04-01T02:27:12.058Z,10.04
2019-04-01T02:28:12.039Z,10.07
2019-04-01T02:29:12.206Z,10.1
2019-04-01T02:30:12.047Z,10.14
2019-04-01T02:31:12.011Z,10.14
2019-04-01T02:32:11.994Z,10.11
2019-04-01T02:33:12.006Z,10.13
2019-04-01T02:34:12.010Z,10.16
2019-04-01T02:35:11.999Z,10.16
2019-04-01T02:36:11.986Z,10.17
2019-04-01T02:37:11.983Z,10.17
2019-04-01T02:38:12.003Z,10.16
2019-04-01T02:39:12.028Z,10.2
2019-04-01T02:40:12.083Z,10.19
2019-04-01T02:41:12.320Z,10.19
2019-04-01T02:42:12.221Z,10.21
2019-04-01T02:43:12.074Z,10.2
2019-04-01T02:44:11.995Z,10.19
2019-04-01T02:45:12.107Z,10.21
2019-04-01T02:46:12.049Z,10.2
2019-04-01T02:47:12.065Z,10.21
2019-04-01T02:48:14.563Z,10.23
2019-04-01T02:49:12.034Z,10.23
2019-04-01T02:50:12.031Z,10.1
2019-04-01T02:51:11.997Z,10.13
2019-04-01T02:52:12.141Z,10.1
2019-04-01T02:53:11.994Z,10.02
2019-04-01T02:54:11.995Z,10.03
2019-04-01T02:55:12.010Z,10.03
2019-04-01T02:56:12.870Z,10.06
2019-04-01T02:57:12.019Z,9.93
2019-04-01T02:58:11.997Z,9.94
2019-04-01T02:59:11.985Z,9.93
2019-04-01T03:00:12.036Z,9.97
2019-04-01T03:01:12.223Z,9.97
2019-04-01T03:02:12.047Z,9.94
2019-04-01T03:03:12.002Z,9.99
2019-04-01T03:04:11.993Z,9.96
2019-04-01T03:05:11.945Z,9.96
2019-04-01T03:06:13.021Z,9.96
2019-04-01T03:07:11.996Z,9.93
2019-04-01T03:08:11.987Z,9.93
2019-04-01T03:09:11.970Z,9.94
2019-04-01T03:10:11.990Z,9.93
2019-04-01T03:11:11.932Z,9.93
2019-04-01T03:12:11.979Z,9.9
2019-04-01T03:13:11.975Z,9.83
2019-04-01T03:14:12.007Z,9.79
2019-04-01T03:15:12.029Z,9.76
2019-04-01T03:16:12.053Z,9.62
2019-04-01T03:17:11.978Z,9.62
2019-04-01T03:18:11.976Z,9.62
2019-04-01T03:19:11.967Z,9.62
2019-04-01T03:20:11.943Z,9.57
2019-04-01T03:21:11.969Z,9.47
2019-04-01T03:22:11.987Z,9.23
2019-04-01T03:23:11.955Z,9.27
2019-04-01T03:24:11.960Z,9.33
2019-04-01T03:25:12.081Z,9.37
2019-04-01T03:26:12.020Z,9.38
2019-04-01T03:27:17.165Z,9.37
2019-04-01T03:28:12.014Z,9.37
2019-04-01T03:29:11.945Z,9.34
2019-04-01T03:30:12.160Z,9.17
2019-04-01T03:31:13.153Z,9.24
2019-04-01T03:32:11.972Z,9.27
2019-04-01T03:33:11.989Z,9.3
2019-04-01T03:34:12.037Z,9.29
2019-04-01T03:35:12.092Z,9.31
2019-04-01T03:36:11.937Z,9.33
2019-04-01T03:37:12.025Z,9.33
2019-04-01T03:38:12.205Z,9.35
2019-04-01T03:39:11.949Z,9.37
2019-04-01T03:40:11.949Z,9.38
2019-04-01T03:41:11.989Z,9.34
2019-04-01T03:42:11.987Z,9.33
2019-04-01T03:43:12.034Z,9.3
2019-04-01T03:44:12.028Z,9.19
2019-04-01T03:45:11.949Z,9.14
2019-04-01T03:46:11.990Z,9.16
2019-04-01T03:47:12.276Z,9.14
2019-04-01T03:48:12.840Z,9.19
2019-04-01T03:49:11.957Z,9.16
2019-04-01T03:50:12.804Z,9.21
2019-04-01T03:51:11.985Z,9.21
2019-04-01T03:52:11.998Z,9.23
2019-04-01T03:53:12.007Z,9.23
2019-04-01T03:54:11.955Z,9.14
2019-04-01T03:55:11.946Z,9.19
2019-04-01T03:56:11.869Z,9.23
2019-04-01T03:57:11.988Z,9.21
2019-04-01T03:58:11.975Z,9.2
2019-04-01T03:59:11.922Z,9.2
2019-04-01T04:00:12.789Z,9.14
2019-04-01T04:01:12.081Z,8.96
2019-04-01T04:02:11.873Z,8.99
2019-04-01T04:03:11.906Z,8.99
2019-04-01T04:04:11.872Z,9.02
2019-04-01T04:05:11.901Z,9.02
2019-04-01T04:06:11.876Z,9.06
2019-04-01T04:07:11.917Z,9
2019-04-01T04:08:12.050Z,8.98
2019-04-01T04:09:12.458Z,9.03
2019-04-01T04:10:11.918Z,9.04
2019-04-01T04:11:11.859Z,9.07
2019-04-01T04:12:12.003Z,9.07
2019-04-01T04:13:11.871Z,9.06
2019-04-01T04:14:11.884Z,9.07
2019-04-01T04:15:11.901Z,9.11
2019-04-01T04:16:11.965Z,9.09
2019-04-01T04:17:11.872Z,9.1
2019-04-01T04:18:11.950Z,9.09
2019-04-01T04:19:11.889Z,9.09
2019-04-01T04:20:11.939Z,9.11
2019-04-01T04:21:11.862Z,9.14
2019-04-01T04:22:11.877Z,9.11
2019-04-01T04:23:11.883Z,9.07
2019-04-01T04:24:11.944Z,9.02
2019-04-01T04:25:11.953Z,8.99
2019-04-01T04:26:11.905Z,8.99
2019-04-01T04:27:11.954Z,8.99
2019-04-01T04:28:11.878Z,8.98
2019-04-01T04:29:11.885Z,8.96
2019-04-01T04:30:12.189Z,8.98
2019-04-01T04:31:11.902Z,8.92
2019-04-01T04:32:11.895Z,8.66
2019-04-01T04:33:11.883Z,8.69
2019-04-01T04:34:11.890Z,8.75
2019-04-01T04:35:11.845Z,8.78
2019-04-01T04:36:11.899Z,8.85
2019-04-01T04:37:11.980Z,8.86
2019-04-01T04:38:11.909Z,8.88
2019-04-01T04:39:11.880Z,8.86
2019-04-01T04:40:11.813Z,8.91
2019-04-01T04:41:11.894Z,8.91
2019-04-01T04:42:11.868Z,8.92
2019-04-01T04:43:11.864Z,8.91
2019-04-01T04:44:11.821Z,8.91
2019-04-01T04:45:11.820Z,8.92
2019-04-01T04:46:11.844Z,8.92
2019-04-01T04:47:11.848Z,8.95
2019-04-01T04:48:11.909Z,8.95
2019-04-01T04:49:11.802Z,8.95
2019-04-01T04:50:11.821Z,8.95
2019-04-01T04:51:11.961Z,8.96
2019-04-01T04:52:12.332Z,8.99
2019-04-01T04:53:11.812Z,8.98
2019-04-01T04:54:11.819Z,8.99
2019-04-01T04:55:11.806Z,9
2019-04-01T04:56:11.805Z,9
2019-04-01T04:57:11.926Z,9
2019-04-01T04:58:11.806Z,8.99
2019-04-01T04:59:11.810Z,8.95
2019-04-01T05:00:11.812Z,8.96
2019-04-01T05:01:11.794Z,8.95
2019-04-01T05:02:11.817Z,8.98
2019-04-01T05:03:11.830Z,8.96
2019-04-01T05:04:11.950Z,9
2019-04-01T05:05:11.797Z,8.98
2019-04-01T05:06:11.777Z,8.98
2019-04-01T05:07:11.819Z,8.99
2019-04-01T05:08:11.867Z,8.99
2019-04-01T05:09:11.828Z,9.03
2019-04-01T05:10:11.831Z,9.03
2019-04-01T05:11:12.682Z,9.06
2019-04-01T05:12:11.791Z,9.04
2019-04-01T05:13:11.779Z,9.03
2019-04-01T05:14:11.804Z,9.06
2019-04-01T05:15:11.820Z,9.1
2019-04-01T05:16:11.816Z,9.06
2019-04-01T05:17:11.779Z,9.07
2019-04-01T05:18:11.831Z,9.07
2019-04-01T05:19:11.844Z,9.1
2019-04-01T05:20:11.794Z,9.13
2019-04-01T05:21:11.778Z,9.13
2019-04-01T05:22:11.810Z,9.13
2019-04-01T05:23:11.834Z,9.13
2019-04-01T05:24:11.788Z,9.13
2019-04-01T05:25:11.788Z,9.11
2019-04-01T05:26:11.769Z,9.13
2019-04-01T05:27:11.836Z,9.13
2019-04-01T05:28:11.780Z,9.14
2019-04-01T05:29:11.766Z,9.14
2019-04-01T05:30:11.796Z,9.11
2019-04-01T05:31:14.990Z,9.1
2019-04-01T05:32:11.804Z,9.09
2019-04-01T05:33:11.745Z,9.04
2019-04-01T05:34:11.772Z,9.07
2019-04-01T05:35:11.813Z,9.06
2019-04-01T05:36:12.432Z,9.04
2019-04-01T05:37:11.792Z,9.1
2019-04-01T05:38:11.755Z,9.06
2019-04-01T05:39:11.827Z,9.06
2019-04-01T05:40:11.768Z,9.06
2019-04-01T05:41:11.742Z,9.03
2019-04-01T05:42:11.781Z,8.99
2019-04-01T05:43:11.764Z,8.99
2019-04-01T05:44:11.749Z,8.99
2019-04-01T05:45:11.789Z,9
2019-04-01T05:46:11.738Z,9.02
2019-04-01T05:47:11.739Z,9
2019-04-01T05:48:11.742Z,9
2019-04-01T05:49:11.742Z,9.02
2019-04-01T05:50:11.788Z,9
2019-04-01T05:51:11.773Z,8.99
2019-04-01T05:52:11.759Z,9.02
2019-04-01T05:53:11.751Z,9.02
2019-04-01T05:54:11.750Z,9
2019-04-01T05:55:11.766Z,9.02
2019-04-01T05:56:11.744Z,9.03
2019-04-01T05:57:11.794Z,9.04
2019-04-01T05:58:11.875Z,9.06
2019-04-01T05:59:11.710Z,9.07
2019-04-01T06:00:11.723Z,9.1
2019-04-01T06:01:11.738Z,9.11
2019-04-01T06:02:11.755Z,9.13
2019-04-01T06:03:11.733Z,9.11
2019-04-01T06:04:11.738Z,9.13
2019-04-01T06:05:11.752Z,9.1
2019-04-01T06:06:11.708Z,9.09
2019-04-01T06:07:11.709Z,9.16
2019-04-01T06:08:11.737Z,9.16
2019-04-01T06:09:11.722Z,9.13
2019-04-01T06:10:11.700Z,9.14
2019-04-01T06:11:11.733Z,9.14
2019-04-01T06:12:11.717Z,9.14
2019-04-01T06:13:11.700Z,9.19
2019-04-01T06:14:11.695Z,9.2
2019-04-01T06:15:11.728Z,9.16
2019-04-01T06:16:11.759Z,9.19
2019-04-01T06:17:11.721Z,9.17
2019-04-01T06:18:11.840Z,9.2
2019-04-01T06:19:11.935Z,9.21
2019-04-01T06:20:11.964Z,9.24
2019-04-01T06:21:11.768Z,9.24
2019-04-01T06:22:11.705Z,9.24
2019-04-01T06:23:11.740Z,9.26
2019-04-01T06:24:11.718Z,9.26
2019-04-01T06:25:12.035Z,9.29
2019-04-01T06:26:11.733Z,9.26
2019-04-01T06:27:13.180Z,9.26
2019-04-01T06:28:11.692Z,9.26
2019-04-01T06:29:11.722Z,9.27
2019-04-01T06:30:11.651Z,9.29
2019-04-01T06:31:11.714Z,9.33
2019-04-01T06:32:11.673Z,9.37
2019-04-01T06:33:11.770Z,9.35
2019-04-01T06:34:11.727Z,9.37
2019-04-01T06:35:11.695Z,9.41
2019-04-01T06:36:11.703Z,9.41
2019-04-01T06:37:11.750Z,9.41
2019-04-01T06:38:11.650Z,9.41
2019-04-01T06:39:12.138Z,9.44
2019-04-01T06:40:11.658Z,9.44
2019-04-01T06:41:12.037Z,9.4
2019-04-01T06:42:11.791Z,9.41
2019-04-01T06:43:11.718Z,9.4
2019-04-01T06:44:11.720Z,9.41
2019-04-01T06:45:11.690Z,9.42
2019-04-01T06:46:11.651Z,9.44
2019-04-01T06:47:11.731Z,9.47
2019-04-01T06:48:11.693Z,9.49
2019-04-01T06:49:11.652Z,9.52
2019-04-01T06:50:11.642Z,9.57
2019-04-01T06:51:11.629Z,9.57
2019-04-01T06:52:11.663Z,9.58
2019-04-01T06:53:11.641Z,9.58
2019-04-01T06:54:12.563Z,9.61
2019-04-01T06:55:11.719Z,9.61
2019-04-01T06:56:11.720Z,9.63
2019-04-01T06:57:11.650Z,9.57
2019-04-01T06:58:12.302Z,9.48
2019-04-01T06:59:11.628Z,9.54
2019-04-01T07:00:11.664Z,9.48
2019-04-01T07:01:11.654Z,9.49
2019-04-01T07:02:11.693Z,9.49
2019-04-01T07:03:12.526Z,9.55
2019-04-01T07:04:11.819Z,9.57
2019-04-01T07:05:13.076Z,9.58
2019-04-01T07:06:11.618Z,9.65
2019-04-01T07:07:19.749Z,9.66
2019-04-01T07:08:11.700Z,9.7
2019-04-01T07:09:11.605Z,9.7
2019-04-01T07:10:11.791Z,9.73
2019-04-01T07:11:11.664Z,9.75
2019-04-01T07:12:12.520Z,9.78
2019-04-01T07:13:12.897Z,9.79
2019-04-01T07:14:11.636Z,9.78
2019-04-01T07:15:11.605Z,9.83
2019-04-01T07:16:16.507Z,9.79
2019-04-01T07:17:11.623Z,9.73
2019-04-01T07:18:11.603Z,9.76
2019-04-01T07:19:11.573Z,9.78
2019-04-01T07:20:11.640Z,9.75
2019-04-01T07:21:11.635Z,9.75
2019-04-01T07:22:11.616Z,9.76
2019-04-01T07:23:11.625Z,9.83
2019-04-01T07:24:11.616Z,9.83
2019-04-01T07:25:11.820Z,9.81
2019-04-01T07:26:11.598Z,9.82
2019-04-01T07:27:12.497Z,9.88
2019-04-01T07:28:11.644Z,9.93
2019-04-01T07:29:11.607Z,9.97
2019-04-01T07:30:11.639Z,9.99
2019-04-01T07:31:11.588Z,10.04
2019-04-01T07:32:14.864Z,10.07
2019-04-01T07:33:11.719Z,10.1
2019-04-01T07:34:11.620Z,10.14
2019-04-01T07:35:11.587Z,10.17
2019-04-01T07:36:11.622Z,10.25
2019-04-01T07:37:11.575Z,10.3
2019-04-01T07:38:11.585Z,10.31
2019-04-01T07:39:11.564Z,10.27
2019-04-01T07:40:14.425Z,10.31
2019-04-01T07:41:11.562Z,10.32
2019-04-01T07:42:11.586Z,10.34
2019-04-01T07:43:15.564Z,10.35
2019-04-01T07:44:11.564Z,10.42
2019-04-01T07:45:11.583Z,10.44
2019-04-01T07:46:11.585Z,10.47
2019-04-01T07:47:11.632Z,10.48
2019-04-01T07:48:13.142Z,10.47
2019-04-01T07:49:12.525Z,10.52
2019-04-01T07:50:12.950Z,10.55
2019-04-01T07:51:11.748Z,10.56
2019-04-01T07:52:12.534Z,10.53
2019-04-01T07:53:11.600Z,10.59
2019-04-01T07:54:11.590Z,10.64
2019-04-01T07:55:11.586Z,10.64
2019-04-01T07:56:11.578Z,10.65
2019-04-01T07:57:11.556Z,10.68
2019-04-01T07:58:11.536Z,10.69
2019-04-01T07:59:11.588Z,10.71
2019-04-01T08:00:11.605Z,10.75
2019-04-01T08:01:11.562Z,10.69
2019-04-01T08:02:11.570Z,10.71
2019-04-01T08:03:11.620Z,10.75
2019-04-01T08:04:11.534Z,10.79
2019-04-01T08:05:12.465Z,10.83
2019-04-01T08:06:11.562Z,10.87
2019-04-01T08:07:13.983Z,10.92
2019-04-01T08:08:11.540Z,10.99
2019-04-01T08:09:11.591Z,10.94
2019-04-01T08:10:11.619Z,10.94
2019-04-01T08:11:11.583Z,10.99
2019-04-01T08:12:11.605Z,10.93
2019-04-01T08:13:11.630Z,10.87
2019-04-01T08:14:12.462Z,10.89
2019-04-01T08:15:11.549Z,10.93
2019-04-01T08:16:11.564Z,11
2019-04-01T08:17:11.691Z,11.04
2019-04-01T08:18:11.553Z,11.04
2019-04-01T08:19:12.475Z,11.06
2019-04-01T08:20:11.537Z,11.1
2019-04-01T08:21:11.589Z,11.15
2019-04-01T08:22:11.565Z,11.18
2019-04-01T08:23:11.538Z,11.22
2019-04-01T08:24:11.622Z,11.25
2019-04-01T08:25:11.521Z,11.21
2019-04-01T08:26:12.408Z,11.24
2019-04-01T08:27:11.509Z,11.28
2019-04-01T08:28:11.587Z,11.28
2019-04-01T08:29:11.566Z,11.3
2019-04-01T08:30:11.530Z,11.3
2019-04-01T08:31:13.731Z,11.3
2019-04-01T08:32:14.406Z,11.32
2019-04-01T08:33:11.523Z,11.25
2019-04-01T08:34:11.605Z,11.28
2019-04-01T08:35:11.494Z,11.27
2019-04-01T08:36:11.510Z,11.34
2019-04-01T08:37:11.538Z,11.38
2019-04-01T08:38:11.508Z,11.44
2019-04-01T08:39:11.501Z,11.49
2019-04-01T08:40:11.519Z,11.56
2019-04-01T08:41:11.537Z,11.62
2019-04-01T08:42:11.543Z,11.52
2019-04-01T08:43:11.525Z,11.59
2019-04-01T08:44:11.500Z,11.65
2019-04-01T08:45:11.521Z,11.65
2019-04-01T08:46:11.474Z,11.68
2019-04-01T08:47:11.481Z,11.69
2019-04-01T08:48:11.488Z,11.72
2019-04-01T08:49:11.494Z,11.75
2019-04-01T08:50:11.475Z,11.8
2019-04-01T08:51:11.535Z,11.84
2019-04-01T08:52:12.178Z,11.87
2019-04-01T08:53:11.595Z,11.87
2019-04-01T08:54:11.530Z,11.84
2019-04-01T08:55:11.566Z,11.89
2019-04-01T08:56:11.482Z,11.75
2019-04-01T08:57:11.605Z,11.79
2019-04-01T08:58:11.564Z,11.86
2019-04-01T08:59:11.517Z,11.92
2019-04-01T09:00:11.509Z,11.94
2019-04-01T09:01:11.479Z,12.01
2019-04-01T09:02:18.744Z,12.01
2019-04-01T09:03:11.501Z,12.04
2019-04-01T09:04:11.504Z,12.13
2019-04-01T09:05:11.491Z,12.17
2019-04-01T09:06:12.136Z,12.2
2019-04-01T09:07:11.497Z,12.18
2019-04-01T09:08:11.497Z,12.18
2019-04-01T09:09:11.476Z,12.14
2019-04-01T09:10:11.458Z,12.17
2019-04-01T09:11:11.460Z,12.2
2019-04-01T09:12:11.512Z,12.13
2019-04-01T09:13:11.502Z,12.17
2019-04-01T09:14:11.735Z,12.2
2019-04-01T09:15:11.488Z,12.29
2019-04-01T09:16:12.750Z,12.32
2019-04-01T09:17:11.501Z,12.32
2019-04-01T09:18:11.441Z,12.32
2019-04-01T09:19:11.514Z,12.38
2019-04-01T09:20:11.448Z,12.42
2019-04-01T09:21:11.457Z,12.46
2019-04-01T09:22:11.499Z,12.48
2019-04-01T09:23:11.469Z,12.56
2019-04-01T09:24:11.442Z,12.63
2019-04-01T09:25:11.484Z,12.65
2019-04-01T09:26:11.436Z,12.72
2019-04-01T09:27:11.479Z,12.73
2019-04-01T09:28:11.427Z,12.6
2019-04-01T09:29:11.441Z,12.65
2019-04-01T09:30:11.414Z,12.77
2019-04-01T09:31:11.422Z,12.86
2019-04-01T09:32:11.441Z,12.9
2019-04-01T09:33:11.436Z,12.96
2019-04-01T09:34:11.441Z,13.04
2019-04-01T09:35:11.608Z,13.13
2019-04-01T09:36:13.287Z,13.19
2019-04-01T09:37:11.446Z,13.21
2019-04-01T09:38:11.421Z,13.21
2019-04-01T09:39:11.433Z,13.21
2019-04-01T09:40:12.339Z,13.28
2019-04-01T09:41:13.897Z,13.29
2019-04-01T09:42:11.408Z,13.18
2019-04-01T09:43:14.649Z,13.18
2019-04-01T09:44:11.415Z,13.28
2019-04-01T09:45:11.410Z,13.29
2019-04-01T09:46:11.441Z,13.29
2019-04-01T09:47:11.384Z,13.35
2019-04-01T09:48:11.381Z,13.42
2019-04-01T09:49:11.442Z,13.46
2019-04-01T09:50:11.389Z,13.55
2019-04-01T09:51:11.422Z,13.69
2019-04-01T09:52:11.455Z,13.74
2019-04-01T09:53:11.414Z,13.77
2019-04-01T09:54:12.537Z,13.83
2019-04-01T09:55:11.400Z,13.79
2019-04-01T09:56:13.078Z,13.8
2019-04-01T09:57:18.550Z,13.86
2019-04-01T09:58:11.440Z,13.79
2019-04-01T09:59:11.480Z,13.79
2019-04-01T10:00:24.349Z,13.87
2019-04-01T10:01:11.643Z,13.9
2019-04-01T10:02:13.014Z,13.98
2019-04-01T10:03:11.421Z,14.04
2019-04-01T10:04:11.384Z,13.98
2019-04-01T10:05:11.372Z,14.01
2019-04-01T10:06:11.468Z,14.12
2019-04-01T10:07:11.359Z,14.21
2019-04-01T10:08:11.489Z,14.22
2019-04-01T10:09:11.509Z,14.25
2019-04-01T10:10:11.403Z,14.32
2019-04-01T10:11:13.253Z,14.32
2019-04-01T10:12:11.365Z,14.38
2019-04-01T10:13:11.370Z,14.48
2019-04-01T10:14:11.434Z,14.4
2019-04-01T10:15:11.381Z,14.45
2019-04-01T10:16:11.379Z,14.53
2019-04-01T10:17:11.418Z,14.53
2019-04-01T10:18:11.410Z,14.58
2019-04-01T10:19:11.418Z,14.43
2019-04-01T10:20:11.377Z,14.48
2019-04-01T10:21:11.372Z,14.53
2019-04-01T10:22:11.390Z,14.58
2019-04-01T10:23:11.350Z,14.67
2019-04-01T10:24:11.355Z,14.72
2019-04-01T10:25:11.355Z,14.76
2019-04-01T10:26:11.354Z,14.79
2019-04-01T10:27:14.652Z,14.83
2019-04-01T10:28:12.944Z,14.84
2019-04-01T10:29:12.916Z,14.87
2019-04-01T10:30:12.399Z,14.94
2019-04-01T10:31:11.356Z,14.98
2019-04-01T10:32:11.356Z,15.01
2019-04-01T10:33:11.502Z,15.07
2019-04-01T10:34:11.373Z,15.05
2019-04-01T10:35:11.373Z,15.14
2019-04-01T10:36:11.333Z,15.18
2019-04-01T10:37:11.339Z,15.15
2019-04-01T10:38:11.418Z,15.17
2019-04-01T10:39:11.354Z,15.18
2019-04-01T10:40:11.466Z,15.29
2019-04-01T10:41:11.498Z,15.36
2019-04-01T10:42:11.409Z,15.28
2019-04-01T10:43:11.366Z,15.35
2019-04-01T10:44:11.383Z,15.39
2019-04-01T10:45:14.465Z,15.5
2019-04-01T10:46:15.339Z,15.53
2019-04-01T10:47:11.598Z,15.6
2019-04-01T10:48:11.412Z,15.64
2019-04-01T10:49:11.530Z,15.59
2019-04-01T10:50:11.506Z,15.52
2019-04-01T10:51:11.503Z,15.54
2019-04-01T10:52:11.441Z,15.6
2019-04-01T10:53:11.475Z,15.62
2019-04-01T10:54:12.571Z,15.64
2019-04-01T10:55:11.551Z,15.64
2019-04-01T10:56:11.551Z,15.66
2019-04-01T10:57:11.630Z,15.73
2019-04-01T10:58:11.501Z,15.77
2019-04-01T10:59:11.544Z,15.85
2019-04-01T11:00:11.660Z,15.88
2019-04-01T11:01:11.433Z,15.85
2019-04-01T11:02:11.706Z,15.88
2019-04-01T11:03:11.543Z,15.87
2019-04-01T11:04:11.582Z,15.87
2019-04-01T11:05:11.633Z,15.91
2019-04-01T11:06:11.484Z,15.95
2019-04-01T11:07:11.585Z,15.98
2019-04-01T11:08:11.460Z,15.97
2019-04-01T11:09:11.450Z,15.73
2019-04-01T11:10:12.196Z,15.82
2019-04-01T11:11:11.403Z,15.7
2019-04-01T11:12:11.326Z,15.69
2019-04-01T11:13:11.309Z,15.78
2019-04-01T11:14:11.311Z,15.9
2019-04-01T11:15:16.102Z,15.99
2019-04-01T11:16:11.394Z,16.08
2019-04-01T11:17:11.370Z,16.14
2019-04-01T11:18:12.512Z,16.24
2019-04-01T11:19:11.339Z,16.29
2019-04-01T11:20:11.317Z,16.39
2019-04-01T11:21:11.274Z,16.52
2019-04-01T11:22:11.309Z,16.56
2019-04-01T11:23:11.311Z,16.54
2019-04-01T11:24:11.286Z,16.56
2019-04-01T11:25:11.300Z,16.66
2019-04-01T11:26:11.361Z,16.77
2019-04-01T11:27:11.253Z,16.83
2019-04-01T11:28:11.320Z,16.88
2019-04-01T11:29:11.318Z,16.97
2019-04-01T11:30:14.317Z,16.95
2019-04-01T11:31:11.392Z,16.98
2019-04-01T11:32:14.005Z,16.99
2019-04-01T11:33:12.587Z,16.91
2019-04-01T11:34:11.452Z,16.92
2019-04-01T11:35:11.620Z,16.95
2019-04-01T11:36:11.427Z,17.04
2019-04-01T11:37:11.400Z,17.09
2019-04-01T11:38:11.398Z,17.18
2019-04-01T11:39:11.405Z,17.25
2019-04-01T11:40:12.938Z,17.32
2019-04-01T11:41:11.589Z,17.35
2019-04-01T11:42:11.592Z,17.33
2019-04-01T11:43:11.363Z,17.32
2019-04-01T11:44:11.486Z,17.37
2019-04-01T11:45:11.406Z,17.4
2019-04-01T11:46:13.156Z,17.46
2019-04-01T11:47:11.426Z,17.44
2019-04-01T11:48:11.368Z,17.46
2019-04-01T11:49:11.473Z,17.47
2019-04-01T11:50:11.427Z,17.53
2019-04-01T11:51:11.390Z,17.57
2019-04-01T11:52:11.425Z,17.67
2019-04-01T11:53:11.264Z,17.67
2019-04-01T11:54:11.288Z,17.7
2019-04-01T11:55:11.317Z,17.7
2019-04-01T11:56:11.251Z,17.76
2019-04-01T11:57:13.962Z,17.5
2019-04-01T11:58:11.234Z,17.56
2019-04-01T11:59:11.341Z,17.67
2019-04-01T12:00:13.773Z,17.6
2019-04-01T12:01:11.410Z,17.52
2019-04-01T12:02:11.262Z,17.61
2019-04-01T12:03:11.261Z,17.52
2019-04-01T12:04:11.305Z,17.36
2019-04-01T12:05:11.293Z,17.26
2019-04-01T12:06:11.378Z,17.37
2019-04-01T12:07:11.427Z,17.49
2019-04-01T12:08:11.245Z,17.53
2019-04-01T12:09:11.285Z,17.54
2019-04-01T12:10:11.276Z,17.52
2019-04-01T12:11:11.262Z,17.58
2019-04-01T12:12:24.609Z,17.58
2019-04-01T12:13:11.298Z,17.67
2019-04-01T12:14:11.271Z,17.76
2019-04-01T12:15:12.899Z,17.61
2019-04-01T12:16:11.250Z,17.71
2019-04-01T12:17:11.229Z,17.81
2019-04-01T12:18:11.255Z,17.91
2019-04-01T12:19:11.204Z,18.01
2019-04-01T12:20:11.213Z,18.13
2019-04-01T12:21:11.283Z,18.22
2019-04-01T12:22:11.654Z,18.29
2019-04-01T12:23:11.225Z,18.36
2019-04-01T12:24:11.242Z,18.43
2019-04-01T12:25:11.204Z,18.52
2019-04-01T12:26:17.646Z,18.59
2019-04-01T12:27:11.270Z,18.63
2019-04-01T12:28:11.321Z,18.7
2019-04-01T12:29:14.782Z,18.71
2019-04-01T12:30:11.227Z,18.77
2019-04-01T12:31:13.306Z,18.81
2019-04-01T12:32:11.246Z,18.85
2019-04-01T12:33:11.241Z,18.81
2019-04-01T12:34:11.242Z,18.6
2019-04-01T12:35:11.319Z,18.6
2019-04-01T12:36:12.195Z,18.66
2019-04-01T12:37:11.277Z,18.37
2019-04-01T12:38:11.213Z,18.26
2019-04-01T12:39:11.361Z,18.37
2019-04-01T12:40:11.411Z,18.49
2019-04-01T12:41:11.235Z,18.63
2019-04-01T12:42:11.240Z,18.7
2019-04-01T12:43:11.222Z,18.61
2019-04-01T12:44:11.619Z,18.54
2019-04-01T12:45:11.331Z,18.5
2019-04-01T12:46:11.232Z,18.64
2019-04-01T12:47:11.290Z,18.74
2019-04-01T12:48:11.250Z,18.89
2019-04-01T12:49:11.268Z,19.02
2019-04-01T12:50:13.052Z,18.85
2019-04-01T12:51:11.213Z,18.74
2019-04-01T12:52:11.241Z,18.8
2019-04-01T12:53:11.182Z,18.91
2019-04-01T12:54:11.230Z,18.99
2019-04-01T12:55:11.225Z,19.13
2019-04-01T12:56:11.203Z,19.29
2019-04-01T12:57:11.234Z,19.22
2019-04-01T12:58:11.210Z,19.32
2019-04-01T12:59:11.252Z,19.44
2019-04-01T13:00:11.206Z,19.49
2019-04-01T13:01:11.243Z,18.88
2019-04-01T13:02:11.218Z,19.12
2019-04-01T13:03:11.220Z,19.25
2019-04-01T13:04:11.240Z,19.37